Los Angeles International Airport
KLAX : now visible

Airfield :











YOU CAN JOIN US ON...

 
LOGIN :

Register | Disclaimer

   EN    FR    IT 

 









Legend :    VFR   Marginal VFR   IFR   Intensive IFR   Very Intensive IFR
Visi :
Ceiling :
>= 8 km
>= 3000ft
5 to 8 km
1000 to 3000 ft
1500m to 5 km
500 to 1000 ft
800 to 1500m
200 to 500 ft
< 800m
< 200 ft
Symbols :   Thunderstorms  Fog  Heavy snow  Heavy precipitations  Wind > 20 kt






- Airport Elevation : 125 ft
- IATA code : LAX


KLAX - Los Angeles International

CURRENT METAR :
  • 271853Z 27010KT 10SM FEW270 SCT330 19/06 A3009 RMK AO2 SLP188 T01890056 $

EXPIRED METARs :
  • 271753Z 13003KT 10SM FEW300 18/05 A3010 RMK AO2 SLP193 T01780050 10183 20094 53010 $
  • 271653Z 12004KT 9SM FEW010 FEW300 15/05 A3009 RMK AO2 SLP190 FU FEW010 T01500050 $

TAF KLAX
Valid from the 27 at 18:00 until the 29 at 00:00 UTC


271746Z 2718/2824 12004KT P6SM SCT250
FM272000 26010KT P6SM SCT250
FM280400 25006KT P6SM BKN250
FM280800 VRB03KT 5SM BR OVC008
FM281000 VRB03KT 6SM BR OVC012
FM281400 12005KT P6SM OVC020
FM282000 24010KT P6SM BKN035
KZLA FIR / North America



MET'MAP, your aeronautical weather chart ! - Copyright ORBIFLY December 2007 - Disclaimer

ORBIFLY MET'MAP TEAM :

Programming & Development : Alexandra Zaïnal
Original concept : Baudouin d'Aumeries
Technical & hardware support : Manuel Goepfert
Assistance : Marc-Olivier Méhu




SOURCES & CREDITS :

   NOAA       Earth
Advisory